Time;durP1;ratioP1;P1;durP2;ratioP2;P2;SDS_P1;SDS_P2;PMS_P1;PMS_P2;Temp;Humidity;BMP_temperature;BMP_pressure;BME280_temperature;BME280_humidity;BME280_pressure;Samples;Min_cycle;Max_cycle;Signal;HPM_P1;HPM_P2
2022/12/14 00:01:11;;;;;;;5.63;4.95;;;16.70;47.20;;;;;;4952813;29;20264;-67
2022/12/14 00:03:37;;;;;;;6.15;5.00;;;16.70;47.20;;;;;;4952753;28;20308;-67
2022/12/14 00:06:25;;;;;;;5.68;4.93;;;16.80;47.30;;;;;;4952935;29;20183;-67
2022/12/14 00:08:54;;;;;;;5.47;4.90;;;16.70;47.20;;;;;;4952755;28;20183;-67
2022/12/14 00:11:23;;;;;;;5.88;5.07;;;16.70;47.20;;;;;;4952997;29;20195;-68
2022/12/14 00:13:59;;;;;;;5.60;4.80;;;16.80;47.30;;;;;;4953747;28;20217;-67
2022/12/14 00:16:28;;;;;;;6.47;4.88;;;16.70;47.20;;;;;;4952808;29;20268;-67
2022/12/14 00:18:56;;;;;;;6.03;5.18;;;16.80;47.30;;;;;;4952448;29;20651;-67
2022/12/14 00:21:23;;;;;;;5.15;4.60;;;16.70;47.20;;;;;;4953866;28;20222;-67
2022/12/14 00:23:51;;;;;;;6.25;4.95;;;16.70;47.20;;;;;;4954946;28;20210;-67
2022/12/14 00:26:20;;;;;;;5.97;4.97;;;16.80;47.30;;;;;;4956367;29;20335;-67
2022/12/14 00:28:48;;;;;;;7.07;5.28;;;16.70;47.30;;;;;;4972238;28;20182;-67
2022/12/14 00:31:15;;;;;;;5.60;5.10;;;16.70;47.20;;;;;;4957539;28;20174;-65
2022/12/14 00:33:41;;;;;;;6.55;5.38;;;16.70;47.20;;;;;;4956173;28;20218;-67
2022/12/14 00:36:10;;;;;;;5.57;4.90;;;16.70;47.20;;;;;;4956051;29;20241;-67
2022/12/14 00:38:36;;;;;;;6.70;5.53;;;16.70;47.20;;;;;;4956065;29;20214;-67
2022/12/14 00:41:03;;;;;;;5.97;5.38;;;16.70;47.30;;;;;;4955988;29;20190;-67
2022/12/14 00:43:30;;;;;;;6.68;5.22;;;16.70;47.20;;;;;;4943640;28;20222;-66
2022/12/14 00:45:56;;;;;;;6.15;5.25;;;16.70;47.30;;;;;;4964273;28;20206;-68
2022/12/14 00:48:24;;;;;;;5.88;5.28;;;16.70;47.20;;;;;;4972152;28;20179;-67
2022/12/14 00:50:53;;;;;;;6.30;5.43;;;16.70;47.40;;;;;;4939915;29;20241;-67
2022/12/14 00:53:20;;;;;;;7.60;5.35;;;16.70;47.20;;;;;;4955893;28;20178;-67
2022/12/14 00:55:47;;;;;;;7.05;5.35;;;16.70;47.20;;;;;;4955860;28;20210;-67
2022/12/14 00:58:17;;;;;;;6.35;5.57;;;16.70;47.20;;;;;;4955793;29;20183;-67
2022/12/14 01:00:43;;;;;;;7.32;6.07;;;16.70;47.20;;;;;;4939736;29;20238;-67
2022/12/14 01:03:11;;;;;;;5.70;5.20;;;16.70;47.20;;;;;;4939628;28;20214;-67
2022/12/14 01:05:38;;;;;;;7.00;5.95;;;16.70;47.20;;;;;;4939947;29;20201;-67
2022/12/14 01:08:04;;;;;;;6.68;5.95;;;16.70;47.30;;;;;;4971864;28;20233;-67
2022/12/14 01:10:31;;;;;;;6.40;5.70;;;16.70;47.20;;;;;;4955983;28;20214;-67
2022/12/14 01:12:56;;;;;;;7.22;5.63;;;16.70;47.30;;;;;;4939743;29;20190;-67
2022/12/14 01:15:22;;;;;;;5.93;5.32;;;16.70;47.30;;;;;;4955390;28;20214;-67
2022/12/14 01:17:51;;;;;;;6.50;5.90;;;16.70;47.30;;;;;;4955180;28;20189;-67
2022/12/14 01:20:17;;;;;;;6.30;5.70;;;16.70;47.20;;;;;;4971593;28;20190;-67
2022/12/14 01:22:43;;;;;;;6.10;5.45;;;16.70;47.20;;;;;;4955571;28;20276;-67
2022/12/14 01:25:08;;;;;;;6.70;5.57;;;16.70;47.80;;;;;;4939676;29;20214;-67
2022/12/14 01:27:34;;;;;;;7.45;5.70;;;16.70;47.20;;;;;;4939148;29;20187;-67
2022/12/14 01:30:00;;;;;;;6.22;5.53;;;16.70;47.30;;;;;;4955179;29;20213;-67
2022/12/14 01:32:27;;;;;;;6.68;5.78;;;16.70;47.30;;;;;;4955142;29;20186;-67
2022/12/14 01:34:52;;;;;;;6.45;5.50;;;16.70;47.20;;;;;;4922795;29;20237;-67
2022/12/14 01:37:18;;;;;;;5.78;5.22;;;16.70;47.30;;;;;;4939112;29;20205;-67
2022/12/14 01:39:45;;;;;;;5.68;5.18;;;16.70;47.80;;;;;;4955041;28;20194;-66
2022/12/14 01:42:14;;;;;;;6.45;5.32;;;16.70;47.30;;;;;;4955120;28;20214;-67
2022/12/14 01:44:42;;;;;;;6.22;5.18;;;16.70;47.20;;;;;;4954999;29;20221;-67
2022/12/14 01:47:32;;;;;;;6.43;5.72;;;16.70;47.30;;;;;;4971359;28;20175;-67
2022/12/14 01:50:14;;;;;;;6.25;5.38;;;16.70;47.30;;;;;;4954816;29;20218;-67
2022/12/14 01:52:45;;;;;;;5.95;5.35;;;16.70;47.30;;;;;;4954810;28;20194;-68
2022/12/14 01:55:33;;;;;;;5.38;4.88;;;16.70;47.20;;;;;;4954704;28;20213;-67
2022/12/14 01:58:14;;;;;;;5.82;5.22;;;16.70;47.20;;;;;;4954696;29;20262;-68
2022/12/14 02:00:42;;;;;;;5.85;5.25;;;16.70;47.20;;;;;;4970699;28;20186;-68
2022/12/14 02:03:27;;;;;;;5.68;5.07;;;16.70;47.20;;;;;;4955690;28;20206;-67
2022/12/14 02:06:01;;;;;;;5.70;5.10;;;16.70;47.30;;;;;;4955841;28;20212;-68
2022/12/14 02:08:28;;;;;;;5.13;4.60;;;16.70;47.30;;;;;;4955672;28;20178;-68
2022/12/14 02:10:55;;;;;;;5.70;5.10;;;16.70;47.30;;;;;;4923064;29;20186;-67
2022/12/14 02:13:46;;;;;;;5.32;4.82;;;16.70;47.30;;;;;;4955446;28;20182;-67
2022/12/14 02:16:11;;;;;;;5.68;4.97;;;16.70;47.30;;;;;;4947655;29;20210;-68
2022/12/14 02:18:37;;;;;;;5.03;4.53;;;16.70;47.30;;;;;;4955284;28;20303;-65
2022/12/14 02:22:05;;;;;;;6.07;5.03;;;16.70;47.20;;;;;;4970562;28;20236;-67
2022/12/14 02:24:52;;;;;;;5.40;4.82;;;16.70;47.20;;;;;;4954337;28;20241;-68
2022/12/14 02:27:57;;;;;;;5.65;5.05;;;16.70;47.30;;;;;;4955480;28;20171;-68
2022/12/14 02:30:33;;;;;;;5.28;4.78;;;16.80;47.40;;;;;;4938129;29;20213;-68
2022/12/14 02:33:54;;;;;;;4.85;4.20;;;16.80;47.30;;;;;;4954257;29;20226;-68
2022/12/14 02:36:51;;;;;;;5.22;4.70;;;16.70;47.30;;;;;;4936993;29;20198;-68
2022/12/14 02:39:37;;;;;;;5.15;4.60;;;16.70;47.30;;;;;;4936788;29;20234;-67
2022/12/14 02:42:31;;;;;;;4.60;4.20;;;16.70;47.30;;;;;;4954775;28;20280;-67
2022/12/14 02:45:24;;;;;;;4.85;4.35;;;16.70;47.30;;;;;;4954164;28;20210;-67
2022/12/14 02:47:57;;;;;;;5.88;5.22;;;16.70;47.30;;;;;;4969930;28;20297;-67
2022/12/14 02:51:00;;;;;;;5.82;5.28;;;16.70;47.30;;;;;;4955279;28;20171;-67
2022/12/14 02:54:03;;;;;;;5.20;4.55;;;16.70;47.20;;;;;;4954118;28;20178;-67
2022/12/14 02:56:45;;;;;;;5.22;4.72;;;16.70;47.30;;;;;;4953068;29;20273;-67
2022/12/14 02:59:12;;;;;;;4.47;4.07;;;16.70;47.30;;;;;;4954625;28;20179;-69
2022/12/14 03:01:41;;;;;;;5.25;4.53;;;16.70;47.20;;;;;;4953528;28;20203;-68
2022/12/14 03:04:07;;;;;;;5.32;4.80;;;16.70;47.20;;;;;;4949889;28;20308;-68
2022/12/14 03:06:32;;;;;;;5.55;4.60;;;16.70;47.30;;;;;;4989345;28;20270;-68
2022/12/14 03:09:06;;;;;;;5.25;4.75;;;16.70;47.30;;;;;;4969327;28;20272;-67
2022/12/14 03:11:54;;;;;;;5.18;4.68;;;16.70;47.30;;;;;;4945812;28;20250;-67
2022/12/14 03:14:39;;;;;;;4.95;4.45;;;16.70;47.20;;;;;;4947759;29;20202;-67
2022/12/14 03:17:32;;;;;;;5.38;4.88;;;16.70;47.20;;;;;;4934630;29;20171;-67
2022/12/14 03:20:14;;;;;;;4.90;4.50;;;16.70;47.20;;;;;;4949349;29;20205;-67
2022/12/14 03:22:56;;;;;;;4.50;4.10;;;16.70;47.20;;;;;;4934194;29;20230;-68
2022/12/14 03:25:49;;;;;;;5.03;4.43;;;16.70;47.30;;;;;;4934124;29;20203;-67
2022/12/14 03:28:19;;;;;;;5.03;4.53;;;16.80;47.40;;;;;;4934970;28;20270;-68
2022/12/14 03:30:53;;;;;;;4.50;4.10;;;16.70;47.30;;;;;;4935229;29;20222;-68
2022/12/14 03:33:26;;;;;;;4.80;4.35;;;16.80;47.40;;;;;;4935118;29;20234;-68
2022/12/14 03:36:12;;;;;;;4.95;4.50;;;16.80;47.30;;;;;;4952045;29;20204;-67
2022/12/14 03:38:49;;;;;;;4.38;3.97;;;16.80;47.40;;;;;;4969014;28;20183;-68
2022/12/14 03:41:58;;;;;;;5.10;4.60;;;16.80;47.40;;;;;;4954226;28;20231;-67
2022/12/14 03:44:45;;;;;;;4.35;3.95;;;16.80;47.30;;;;;;4958187;23;20236;-69
2022/12/14 03:47:13;;;;;;;5.05;4.03;;;16.70;47.30;;;;;;4991741;28;20169;-69
2022/12/14 03:50:03;;;;;;;4.63;4.22;;;16.70;47.30;;;;;;4990981;28;20192;-68
2022/12/14 03:52:54;;;;;;;5.40;4.90;;;16.70;47.30;;;;;;4991623;28;20327;-69
2022/12/14 03:55:29;;;;;;;4.80;4.40;;;16.70;47.30;;;;;;4991560;28;20216;-69
2022/12/14 03:58:29;;;;;;;4.90;4.38;;;16.70;47.30;;;;;;4976130;28;20652;-69
2022/12/14 04:01:14;;;;;;;4.82;4.35;;;16.70;47.30;;;;;;4995562;28;20180;-69
2022/12/14 04:04:07;;;;;;;4.65;4.20;;;16.80;47.40;;;;;;4993046;28;20193;-69
2022/12/14 04:06:56;;;;;;;4.85;4.35;;;16.70;47.40;;;;;;4995858;28;20169;-69
2022/12/14 04:10:02;;;;;;;4.80;4.28;;;16.70;47.30;;;;;;4995457;28;20181;-68
2022/12/14 04:21:43;;;;;;;4.82;4.20;;;16.80;47.40;;;;;;4995331;28;20212;-69
2022/12/14 04:27:43;;;;;;;4.63;3.92;;;16.70;47.40;;;;;;4994825;28;20193;-69
2022/12/14 04:30:11;;;;;;;4.72;4.28;;;16.80;48.00;;;;;;4994829;28;20184;-69
2022/12/14 04:32:51;;;;;;;4.60;4.20;;;16.80;47.50;;;;;;4994957;28;20232;-70
2022/12/14 04:35:43;;;;;;;4.70;4.30;;;16.80;47.40;;;;;;4988992;28;20235;-69
2022/12/14 04:38:17;;;;;;;4.53;4.13;;;16.70;47.40;;;;;;4994444;28;20200;-69
2022/12/14 04:40:58;;;;;;;4.68;4.18;;;16.70;47.30;;;;;;4995249;28;20189;-69
2022/12/14 04:43:28;;;;;;;4.60;4.20;;;16.80;47.50;;;;;;4994900;28;20213;-69
2022/12/14 04:46:19;;;;;;;4.82;4.43;;;16.70;47.40;;;;;;4994858;28;20634;-69
2022/12/14 04:49:08;;;;;;;5.10;4.60;;;16.80;47.50;;;;;;5010915;28;20173;-69
2022/12/14 04:51:46;;;;;;;4.25;3.85;;;16.80;47.50;;;;;;4995822;28;20169;-69
2022/12/14 04:54:34;;;;;;;4.80;4.22;;;16.80;47.50;;;;;;4994948;28;20209;-69
2022/12/14 04:57:13;;;;;;;4.40;4.00;;;16.80;47.50;;;;;;4994502;28;20181;-69
2022/12/14 04:59:39;;;;;;;4.57;4.18;;;16.80;47.50;;;;;;5010640;28;20224;-69
2022/12/14 05:02:27;;;;;;;4.82;4.38;;;16.80;47.50;;;;;;4978457;28;20248;-69
2022/12/14 05:05:33;;;;;;;4.22;3.83;;;16.80;47.40;;;;;;4995436;28;20267;-69
2022/12/14 05:08:22;;;;;;;4.40;4.00;;;16.70;47.40;;;;;;4994345;28;20180;-69
2022/12/14 05:10:55;;;;;;;4.68;4.05;;;16.80;47.50;;;;;;4993149;28;20260;-69
2022/12/14 05:13:36;;;;;;;4.47;4.07;;;16.80;47.40;;;;;;4978418;28;20259;-69
2022/12/14 05:16:03;;;;;;;4.55;4.15;;;16.80;47.50;;;;;;4978032;28;20739;-69
2022/12/14 05:18:28;;;;;;;3.83;3.53;;;16.80;47.50;;;;;;4995269;28;20649;-68
2022/12/14 05:20:54;;;;;;;4.70;4.22;;;16.80;47.50;;;;;;4995428;28;20201;-69
2022/12/14 05:23:20;;;;;;;5.20;4.78;;;16.80;47.40;;;;;;4994335;28;20283;-69
2022/12/14 05:25:46;;;;;;;5.47;4.97;;;16.80;47.40;;;;;;4977689;28;20578;-69
2022/12/14 05:28:12;;;;;;;4.80;4.32;;;16.80;47.40;;;;;;4977563;28;20192;-68
2022/12/14 05:30:38;;;;;;;4.47;4.05;;;16.80;47.50;;;;;;4994136;28;20252;-69
2022/12/14 05:33:03;;;;;;;5.00;4.32;;;16.80;47.40;;;;;;4993938;28;20196;-69
2022/12/14 05:35:29;;;;;;;4.50;4.10;;;16.80;47.50;;;;;;4978276;28;20213;-69
2022/12/14 05:37:55;;;;;;;4.80;4.40;;;16.80;47.50;;;;;;4989529;28;20189;-69
2022/12/14 05:40:21;;;;;;;4.95;4.45;;;16.80;47.50;;;;;;4974193;28;20654;-69
2022/12/14 05:42:46;;;;;;;4.50;4.10;;;16.80;47.50;;;;;;4975415;28;20245;-69
2022/12/14 05:45:13;;;;;;;4.78;4.38;;;16.80;47.50;;;;;;4957871;28;20263;-69
2022/12/14 05:47:39;;;;;;;4.65;4.20;;;16.80;47.50;;;;;;4974436;28;20225;-69
2022/12/14 05:50:07;;;;;;;4.40;4.05;;;16.80;47.50;;;;;;4974001;28;20196;-69
2022/12/14 05:52:33;;;;;;;4.90;4.40;;;16.80;47.50;;;;;;4958061;28;20225;-69
2022/12/14 05:54:59;;;;;;;4.88;4.45;;;16.80;47.50;;;;;;4974219;28;20249;-69
2022/12/14 05:57:24;;;;;;;4.60;4.18;;;16.80;47.50;;;;;;4958325;28;20268;-69
2022/12/14 05:59:50;;;;;;;5.07;4.63;;;16.80;47.50;;;;;;4957950;28;20240;-69
2022/12/14 06:02:16;;;;;;;4.70;4.30;;;16.80;47.60;;;;;;4973584;28;20221;-69
2022/12/14 06:04:42;;;;;;;4.97;4.47;;;16.80;47.60;;;;;;4982403;28;20299;-69
2022/12/14 06:07:11;;;;;;;5.20;4.70;;;16.80;47.60;;;;;;4977079;28;20189;-71
2022/12/14 06:09:37;;;;;;;5.20;4.70;;;16.80;47.60;;;;;;4992992;28;20204;-70
2022/12/14 06:12:03;;;;;;;5.30;4.80;;;16.80;47.60;;;;;;4976976;28;20193;-71
2022/12/14 06:14:29;;;;;;;5.75;4.40;;;16.80;47.60;;;;;;4993105;28;20303;-70
2022/12/14 06:16:54;;;;;;;4.72;4.32;;;16.80;47.50;;;;;;4992400;28;20185;-70
2022/12/14 06:19:20;;;;;;;5.00;4.28;;;16.80;47.50;;;;;;4993614;28;20188;-71
2022/12/14 06:21:46;;;;;;;4.82;4.35;;;16.80;47.50;;;;;;4976033;28;20216;-71
2022/12/14 06:24:13;;;;;;;4.80;4.40;;;16.80;47.60;;;;;;4991783;28;20205;-71
2022/12/14 06:26:39;;;;;;;4.78;4.38;;;16.80;47.60;;;;;;4992560;28;20181;-71
2022/12/14 06:29:07;;;;;;;4.88;4.47;;;16.80;47.60;;;;;;4975842;28;20185;-71
2022/12/14 06:31:33;;;;;;;4.93;4.53;;;16.80;47.60;;;;;;4992179;28;20571;-71
2022/12/14 06:34:02;;;;;;;5.13;4.72;;;16.80;47.60;;;;;;4992195;28;20223;-71
2022/12/14 06:36:34;;;;;;;5.22;4.75;;;16.80;48.30;;;;;;4975926;28;20176;-71
2022/12/14 06:39:07;;;;;;;4.68;4.22;;;16.80;47.60;;;;;;4976270;28;20208;-71
2022/12/14 06:41:33;;;;;;;4.85;4.45;;;16.80;47.60;;;;;;5008535;28;20236;-71
2022/12/14 06:44:10;;;;;;;4.95;4.38;;;16.80;47.60;;;;;;4991958;28;20220;-71
2022/12/14 06:46:37;;;;;;;4.57;4.18;;;16.80;47.70;;;;;;4990895;28;20188;-70
2022/12/14 06:49:05;;;;;;;5.35;4.68;;;16.80;47.70;;;;;;5006724;28;20185;-70
2022/12/14 06:51:32;;;;;;;5.75;5.03;;;16.80;47.70;;;;;;4991454;28;20195;-71
2022/12/14 06:53:58;;;;;;;5.22;4.70;;;16.70;47.60;;;;;;4992832;28;20201;-71
2022/12/14 06:56:26;;;;;;;5.93;5.32;;;16.80;47.70;;;;;;4976146;28;20583;-71
2022/12/14 06:58:55;;;;;;;5.32;4.82;;;16.80;47.80;;;;;;4991741;28;20189;-71
2022/12/14 07:01:23;;;;;;;5.25;4.75;;;16.80;47.80;;;;;;4975560;28;20213;-71
2022/12/14 07:03:56;;;;;;;5.10;4.60;;;16.80;47.70;;;;;;4975502;28;20260;-71
2022/12/14 07:06:25;;;;;;;5.47;4.97;;;16.80;47.80;;;;;;4992149;28;20181;-71
2022/12/14 07:08:57;;;;;;;6.72;4.85;;;16.80;47.70;;;;;;4991713;28;20224;-70
2022/12/14 07:11:25;;;;;;;5.55;4.78;;;16.80;47.80;;;;;;4991786;28;20185;-71
2022/12/14 07:13:51;;;;;;;5.40;4.90;;;16.80;47.80;;;;;;4992981;28;20185;-70
2022/12/14 07:16:22;;;;;;;5.22;4.72;;;16.80;47.70;;;;;;4975306;28;20187;-71
2022/12/14 07:18:49;;;;;;;4.88;4.38;;;16.80;47.80;;;;;;4991516;28;20184;-71
2022/12/14 07:21:18;;;;;;;4.93;4.38;;;16.80;47.80;;;;;;4991725;28;20212;-71
2022/12/14 07:23:47;;;;;;;4.95;4.25;;;16.80;47.90;;;;;;4991869;28;20206;-71
2022/12/14 07:26:24;;;;;;;5.32;4.57;;;16.80;47.90;;;;;;4991620;28;20690;-71
2022/12/14 07:28:51;;;;;;;5.15;4.65;;;16.80;47.90;;;;;;4991225;28;20184;-71
2022/12/14 07:31:19;;;;;;;4.80;4.40;;;16.80;47.90;;;;;;4991694;28;20185;-71
2022/12/14 07:33:45;;;;;;;4.85;4.45;;;16.80;47.90;;;;;;4990709;28;20189;-71
2022/12/14 07:36:15;;;;;;;5.03;4.50;;;16.80;47.90;;;;;;4975144;28;20195;-71
2022/12/14 07:38:43;;;;;;;5.00;4.50;;;16.80;47.90;;;;;;4975215;28;20611;-71
2022/12/14 07:41:19;;;;;;;5.38;4.88;;;16.80;47.90;;;;;;4974947;28;20192;-70
2022/12/14 07:43:46;;;;;;;4.95;4.45;;;16.90;48.00;;;;;;4991280;28;20639;-71
2022/12/14 07:46:20;;;;;;;5.07;4.65;;;16.80;48.00;;;;;;4975450;28;20176;-70
2022/12/14 07:48:49;;;;;;;5.72;5.07;;;16.80;48.00;;;;;;4992484;28;20172;-70
2022/12/14 07:51:18;;;;;;;5.43;4.93;;;16.80;48.00;;;;;;4992446;28;20588;-70
2022/12/14 07:53:45;;;;;;;5.45;4.78;;;16.80;48.00;;;;;;4990691;28;20189;-70
2022/12/14 07:56:15;;;;;;;5.32;4.55;;;16.80;48.00;;;;;;4992397;28;20191;-70
2022/12/14 07:58:41;;;;;;;6.80;5.50;;;16.80;48.00;;;;;;4974984;28;20649;-70
2022/12/14 08:01:14;;;;;;;6.13;5.43;;;16.80;48.00;;;;;;4992399;28;20222;-71
2022/12/14 08:03:44;;;;;;;6.30;5.38;;;16.80;48.00;;;;;;4992236;28;20189;-71
2022/12/14 08:06:12;;;;;;;6.55;5.13;;;16.80;48.00;;;;;;4991035;28;20196;-71
2022/12/14 08:08:38;;;;;;;6.05;5.40;;;16.80;48.00;;;;;;4974544;28;20191;-70
2022/12/14 08:11:06;;;;;;;6.97;5.90;;;16.80;48.00;;;;;;4974906;28;20192;-71
2022/12/14 08:13:32;;;;;;;5.63;5.03;;;16.80;48.10;;;;;;4974991;28;20184;-71
2022/12/14 08:16:08;;;;;;;6.53;5.68;;;16.80;48.10;;;;;;4974848;28;20189;-70
2022/12/14 08:18:35;;;;;;;6.45;5.85;;;16.80;48.00;;;;;;4991753;28;20189;-70
2022/12/14 08:21:01;;;;;;;6.22;5.60;;;16.80;48.10;;;;;;4990019;28;20185;-70
2022/12/14 08:23:28;;;;;;;6.78;5.65;;;16.80;48.10;;;;;;4988967;28;20217;-70
2022/12/14 08:25:56;;;;;;;6.15;5.40;;;16.80;48.00;;;;;;4991130;28;20743;-70
2022/12/14 08:28:23;;;;;;;5.70;5.10;;;16.90;48.20;;;;;;4990530;28;20284;-70
2022/12/14 08:30:49;;;;;;;6.00;5.32;;;16.90;48.20;;;;;;4990964;28;20185;-70
2022/12/14 08:33:16;;;;;;;7.03;5.70;;;16.80;48.00;;;;;;4974558;28;20196;-70
2022/12/14 08:35:42;;;;;;;6.13;5.53;;;16.80;48.10;;;;;;4990975;28;20232;-70
2022/12/14 08:38:08;;;;;;;6.50;5.50;;;16.90;48.20;;;;;;4991621;28;20668;-70
2022/12/14 08:40:35;;;;;;;5.88;5.28;;;16.90;48.20;;;;;;4991063;28;20224;-71
2022/12/14 08:43:04;;;;;;;6.25;5.45;;;16.80;48.10;;;;;;4990769;28;20319;-71
2022/12/14 08:45:29;;;;;;;6.20;5.60;;;16.80;48.10;;;;;;4977655;28;20213;-71
2022/12/14 08:48:02;;;;;;;6.70;5.70;;;16.90;48.20;;;;;;4978113;28;20187;-70
2022/12/14 08:50:28;;;;;;;5.38;4.88;;;16.90;48.20;;;;;;4994443;28;20195;-71
2022/12/14 08:52:54;;;;;;;6.00;5.05;;;16.90;48.20;;;;;;4994228;28;20220;-71
2022/12/14 08:55:22;;;;;;;6.55;5.95;;;16.80;48.20;;;;;;4994152;28;20232;-71
2022/12/14 08:57:48;;;;;;;6.95;5.03;;;16.80;48.20;;;;;;4977925;28;20284;-71
2022/12/14 09:00:15;;;;;;;5.90;5.38;;;16.90;48.20;;;;;;4993930;28;20192;-71
2022/12/14 09:02:40;;;;;;;6.38;5.43;;;16.90;48.20;;;;;;4995216;28;20236;-71
2022/12/14 09:05:07;;;;;;;5.80;5.00;;;16.90;48.20;;;;;;4994497;28;20216;-71
2022/12/14 09:07:33;;;;;;;6.00;5.20;;;16.90;48.20;;;;;;4977644;28;20192;-71
2022/12/14 09:09:58;;;;;;;5.53;5.00;;;16.90;48.30;;;;;;4977487;28;20185;-71
2022/12/14 09:12:24;;;;;;;7.07;6.07;;;16.90;48.30;;;;;;4994119;28;20554;-71
2022/12/14 09:14:50;;;;;;;6.30;5.70;;;16.90;48.30;;;;;;4993935;28;20283;-71
2022/12/14 09:17:17;;;;;;;6.60;5.68;;;16.90;48.20;;;;;;4993824;28;20207;-71
2022/12/14 09:19:43;;;;;;;5.82;5.22;;;16.90;48.30;;;;;;4977450;28;20195;-71
2022/12/14 09:22:10;;;;;;;6.05;5.45;;;16.90;48.20;;;;;;4977477;28;20220;-71
2022/12/14 09:24:36;;;;;;;6.07;5.32;;;16.90;48.30;;;;;;4977215;28;20212;-71
2022/12/14 09:27:02;;;;;;;5.60;5.10;;;16.90;48.30;;;;;;4977476;28;20177;-71
2022/12/14 09:29:29;;;;;;;5.85;5.25;;;16.90;48.30;;;;;;4993379;28;20219;-71
2022/12/14 09:31:55;;;;;;;6.25;5.20;;;16.90;48.30;;;;;;4993620;28;20280;-71
2022/12/14 09:34:22;;;;;;;6.18;5.57;;;16.90;48.30;;;;;;4977396;28;20212;-71
2022/12/14 09:36:48;;;;;;;6.20;5.60;;;17.00;48.50;;;;;;4993472;28;20679;-71
2022/12/14 09:39:14;;;;;;;5.60;5.10;;;16.90;48.40;;;;;;4993248;28;20263;-71
2022/12/14 09:42:00;;;;;;;5.70;5.20;;;16.90;48.40;;;;;;4977065;28;20673;-71
2022/12/14 09:44:56;;;;;;;5.70;5.10;;;17.00;48.50;;;;;;4994500;28;20213;-71
2022/12/14 09:47:30;;;;;;;5.05;4.55;;;17.00;48.50;;;;;;4976954;28;20259;-71
2022/12/14 09:50:05;;;;;;;5.68;5.15;;;17.00;48.50;;;;;;4992812;28;20180;-71
2022/12/14 09:52:53;;;;;;;5.65;5.05;;;17.00;48.50;;;;;;4977061;28;20203;-71
2022/12/14 09:55:28;;;;;;;5.80;5.30;;;17.00;48.50;;;;;;4976216;28;20216;-71
2022/12/14 09:58:24;;;;;;;5.50;4.95;;;17.00;48.50;;;;;;4994363;28;20239;-71
2022/12/14 10:01:24;;;;;;;5.80;5.30;;;17.00;48.60;;;;;;4992995;28;20197;-71
2022/12/14 10:04:22;;;;;;;5.63;4.90;;;17.00;48.60;;;;;;4992935;28;20188;-71
2022/12/14 10:07:22;;;;;;;5.50;5.00;;;17.00;48.60;;;;;;4976983;28;20219;-71
2022/12/14 10:10:25;;;;;;;5.75;5.18;;;17.00;48.60;;;;;;4976540;28;20189;-71
2022/12/14 10:13:29;;;;;;;5.53;5.03;;;17.00;48.70;;;;;;4992902;28;20239;-71
2022/12/14 10:16:30;;;;;;;5.68;4.97;;;17.00;48.70;;;;;;4972952;28;20201;-71
2022/12/14 10:19:43;;;;;;;5.10;4.70;;;17.00;48.80;;;;;;4989098;28;20198;-70
2022/12/14 10:22:16;;;;;;;4.97;4.47;;;17.00;48.80;;;;;;4957161;28;20217;-71
2022/12/14 10:24:50;;;;;;;5.47;4.97;;;17.00;48.80;;;;;;4957021;28;20216;-70
2022/12/14 10:27:26;;;;;;;5.00;4.60;;;17.00;48.90;;;;;;4989209;28;20186;-71
2022/12/14 10:30:13;;;;;;;5.30;4.80;;;17.00;48.90;;;;;;4971524;28;20275;-71
2022/12/14 10:32:44;;;;;;;5.13;4.30;;;17.00;48.90;;;;;;4975864;28;20181;-71
2022/12/14 10:35:39;;;;;;;4.90;4.50;;;17.00;48.90;;;;;;4992261;28;20227;-70
2022/12/14 10:38:46;;;;;;;5.20;4.65;;;17.00;48.90;;;;;;4992288;28;20193;-71
2022/12/14 10:41:17;;;;;;;4.82;4.38;;;17.00;48.90;;;;;;4990403;28;20197;-71
2022/12/14 10:44:08;;;;;;;5.25;4.75;;;17.10;48.90;;;;;;4991990;28;20244;-71
2022/12/14 10:47:08;;;;;;;4.95;4.55;;;17.10;48.90;;;;;;4992093;28;20196;-70
2022/12/14 10:49:47;;;;;;;5.32;4.82;;;17.00;48.90;;;;;;4992990;28;20192;-70
2022/12/14 10:52:18;;;;;;;6.50;4.20;;;17.00;48.90;;;;;;4975751;28;20188;-71
2022/12/14 10:54:59;;;;;;;4.75;4.28;;;17.10;48.90;;;;;;4976212;28;20295;-71
2022/12/14 10:57:26;;;;;;;4.72;4.32;;;17.00;48.90;;;;;;4992149;28;20201;-71
2022/12/14 10:59:54;;;;;;;4.95;4.50;;;17.00;48.90;;;;;;4991830;28;20188;-71
2022/12/14 11:02:27;;;;;;;4.70;4.18;;;17.10;48.90;;;;;;4991790;28;20215;-71
2022/12/14 11:05:00;;;;;;;5.13;4.38;;;17.10;48.90;;;;;;4992971;28;20279;-70
2022/12/14 11:07:32;;;;;;;4.38;3.97;;;17.10;49.00;;;;;;4991049;28;20239;-71
2022/12/14 11:10:26;;;;;;;4.35;3.95;;;17.00;48.90;;;;;;4991802;28;20181;-70
2022/12/14 11:13:12;;;;;;;4.03;3.72;;;17.10;48.90;;;;;;4991613;28;20216;-71
2022/12/14 11:15:46;;;;;;;4.18;3.78;;;17.10;48.90;;;;;;4993259;28;20212;-71
2022/12/14 11:18:15;;;;;;;5.00;4.50;;;17.10;48.90;;;;;;4991664;28;20176;-71
2022/12/14 11:21:00;;;;;;;4.30;3.90;;;17.10;48.90;;;;;;4975340;28;20239;-71
2022/12/14 11:23:39;;;;;;;4.00;3.70;;;17.10;48.90;;;;;;4991392;28;20324;-71
2022/12/14 11:26:34;;;;;;;4.82;4.43;;;17.10;48.90;;;;;;4991667;28;20212;-71
2022/12/14 11:29:04;;;;;;;4.40;4.00;;;17.10;48.90;;;;;;4983412;28;20548;-71
2022/12/14 11:31:33;;;;;;;4.18;3.85;;;17.10;48.90;;;;;;4975391;28;20192;-71
2022/12/14 11:34:01;;;;;;;3.90;3.60;;;17.10;48.90;;;;;;4974971;28;20216;-71
2022/12/14 11:36:32;;;;;;;4.30;3.90;;;17.10;49.00;;;;;;4975208;28;20239;-71
2022/12/14 11:39:20;;;;;;;4.10;3.80;;;17.10;49.60;;;;;;4991406;28;20200;-71
2022/12/14 11:41:51;;;;;;;4.80;4.30;;;17.10;49.00;;;;;;4975254;28;20248;-71
2022/12/14 11:44:22;;;;;;;4.50;4.13;;;17.10;48.90;;;;;;4990735;28;20295;-70
2022/12/14 11:47:04;;;;;;;4.03;3.65;;;17.10;49.00;;;;;;4975208;28;20185;-71
2022/12/14 11:49:38;;;;;;;3.78;3.47;;;17.10;49.20;;;;;;4975163;28;20181;-71
2022/12/14 11:52:04;;;;;;;4.32;3.92;;;17.10;49.10;;;;;;4975518;28;20196;-71
2022/12/14 11:54:39;;;;;;;4.25;3.72;;;17.10;49.20;;;;;;4974928;28;20219;-71
2022/12/14 11:57:33;;;;;;;4.03;3.67;;;17.10;49.20;;;;;;4991205;28;20656;-71
2022/12/14 12:00:20;;;;;;;5.00;4.50;;;17.10;49.20;;;;;;4992305;28;20189;-70
2022/12/14 12:03:12;;;;;;;4.20;3.85;;;17.10;49.20;;;;;;4990912;28;20243;-71
2022/12/14 12:05:42;;;;;;;3.90;3.60;;;17.10;49.10;;;;;;4992184;28;20197;-70
2022/12/14 12:08:29;;;;;;;4.68;4.18;;;17.10;49.10;;;;;;4975087;28;20195;-70
2022/12/14 12:10:59;;;;;;;4.45;4.10;;;17.10;49.20;;;;;;4991245;28;20177;-70
2022/12/14 12:13:38;;;;;;;4.55;4.15;;;17.20;49.20;;;;;;4992122;28;20200;-70
2022/12/14 12:16:08;;;;;;;4.20;3.88;;;17.10;49.20;;;;;;4974889;28;20247;-71
2022/12/14 12:18:58;;;;;;;4.72;4.32;;;17.20;49.30;;;;;;4992284;28;20189;-70
2022/12/14 12:21:27;;;;;;;4.40;4.03;;;17.20;49.40;;;;;;4975268;28;20194;-71
2022/12/14 12:24:25;;;;;;;4.32;3.95;;;17.20;49.40;;;;;;4986997;28;20193;-70
2022/12/14 12:26:59;;;;;;;4.45;4.05;;;17.20;49.30;;;;;;4978521;28;20188;-71
2022/12/14 12:29:38;;;;;;;4.38;3.97;;;17.10;49.30;;;;;;4974798;28;20186;-70
2022/12/14 12:32:28;;;;;;;4.13;3.75;;;17.20;49.50;;;;;;4991478;28;20190;-71
2022/12/14 12:35:06;;;;;;;3.80;3.50;;;17.10;49.30;;;;;;4991757;28;20217;-70
2022/12/14 12:37:40;;;;;;;4.20;3.80;;;17.10;49.40;;;;;;4991506;28;20296;-71
2022/12/14 12:40:31;;;;;;;3.72;3.42;;;17.20;49.40;;;;;;4991221;28;20197;-71
2022/12/14 12:43:25;;;;;;;4.38;3.97;;;17.20;49.50;;;;;;4923053;28;20277;-70
2022/12/14 12:45:59;;;;;;;4.55;3.60;;;17.20;49.50;;;;;;4976202;28;20652;-71
2022/12/14 12:48:44;;;;;;;4.93;4.35;;;17.20;49.60;;;;;;4975124;28;20186;-71
2022/12/14 12:51:26;;;;;;;3.72;3.42;;;17.20;49.50;;;;;;4974981;28;20199;-69
2022/12/14 12:54:10;;;;;;;4.05;3.65;;;17.10;49.40;;;;;;4991397;28;20197;-72
2022/12/14 12:56:52;;;;;;;4.53;4.13;;;17.20;49.50;;;;;;4976060;28;20739;-71
2022/12/14 12:59:33;;;;;;;4.85;4.07;;;17.10;49.50;;;;;;4974689;28;20204;-71
2022/12/14 13:02:32;;;;;;;4.80;4.40;;;17.10;49.60;;;;;;4974686;28;20218;-71
2022/12/14 13:05:09;;;;;;;4.78;4.30;;;17.20;49.60;;;;;;4990600;28;20217;-71
2022/12/14 13:07:43;;;;;;;4.47;3.97;;;17.20;49.60;;;;;;4975772;28;20185;-71
2022/12/14 13:10:33;;;;;;;4.30;3.90;;;17.20;49.60;;;;;;4958439;28;20180;-70
2022/12/14 13:13:15;;;;;;;4.30;3.90;;;17.20;49.60;;;;;;4974624;28;20248;-71
2022/12/14 13:15:53;;;;;;;4.50;4.10;;;17.20;49.70;;;;;;4974432;28;20210;-71
2022/12/14 13:18:36;;;;;;;4.53;4.13;;;17.20;49.70;;;;;;4974720;28;20193;-71
2022/12/14 13:21:29;;;;;;;5.03;4.53;;;17.20;49.80;;;;;;4958387;28;20196;-71
2022/12/14 13:23:55;;;;;;;5.15;4.60;;;17.20;49.70;;;;;;4974396;28;20222;-71
2022/12/14 13:27:14;;;;;;;5.10;4.40;;;17.20;49.80;;;;;;4975396;28;20608;-71
2022/12/14 13:30:12;;;;;;;4.45;4.05;;;17.20;49.80;;;;;;4990379;28;20197;-71
2022/12/14 13:33:32;;;;;;;5.00;4.60;;;17.20;49.80;;;;;;4990095;28;20193;-71
2022/12/14 13:36:35;;;;;;;4.35;4.00;;;17.20;49.80;;;;;;4974086;28;20220;-71
2022/12/14 13:39:12;;;;;;;4.82;4.43;;;17.20;49.80;;;;;;4990062;28;20193;-70
2022/12/14 13:42:36;;;;;;;5.03;4.55;;;17.20;50.00;;;;;;4991280;28;20192;-71
2022/12/14 13:45:12;;;;;;;4.78;4.22;;;17.20;49.90;;;;;;4994343;28;20217;-71